Washington, Pennsylvania
Current Conditions -  °F | °C
As of 1:15 PM on Monday 26 Jan 2015 (Local Time) from KAFJ Reporting Station
Overcast Overcast  
Wind Chill: 28°   Ceiling: 900
Heat Index: 28°   Visibility: 2.5mi
Dew Point: 25°   Wind: 0mph
Humidity: 86%   Direction: NA
Pressure: 29.7"   Gusts: NA
Location:  40.17°N, 80.25°W
Report Text: KAFJ 261815Z AUTO 00000KT 2 1/2SM BKN009 BKN014 OVC030 M02/M04 A2970 RMK AO1
Loading
Personal Weather Stations






























Interactive Weather Map New forecast layout! Learn more

10-Day Weather Forecast

Advertisements
Track Severe Weather on mobile